sensor_id;sensor_type;location;lat;lon;timestamp;P1;durP1;ratioP1;P2;durP2;ratioP2
70951;SDS011;77099;56.074;37.376;2024-03-23T00:56:03;13.73;;;5.00;;
70951;SDS011;77099;56.074;37.376;2024-03-23T00:58:29;14.40;;;5.25;;
70951;SDS011;77099;56.074;37.376;2024-03-23T01:00:54;11.80;;;4.25;;
70951;SDS011;77099;56.074;37.376;2024-03-23T01:03:20;13.20;;;4.80;;
70951;SDS011;77099;56.074;37.376;2024-03-23T01:05:46;13.67;;;5.03;;
70951;SDS011;77099;56.074;37.376;2024-03-23T01:08:11;11.90;;;4.30;;
70951;SDS011;77099;56.074;37.376;2024-03-23T01:10:37;7.90;;;3.23;;
70951;SDS011;77099;56.074;37.376;2024-03-23T01:13:02;9.70;;;4.07;;
70951;SDS011;77099;56.074;37.376;2024-03-23T01:15:28;10.70;;;3.87;;
70951;SDS011;77099;56.074;37.376;2024-03-23T01:17:54;12.48;;;4.07;;
70951;SDS011;77099;56.074;37.376;2024-03-23T01:20:19;10.77;;;3.07;;
70951;SDS011;77099;56.074;37.376;2024-03-23T01:22:45;12.90;;;4.65;;
70951;SDS011;77099;56.074;37.376;2024-03-23T01:25:11;14.30;;;4.13;;
70951;SDS011;77099;56.074;37.376;2024-03-23T01:27:36;12.80;;;4.43;;
70951;SDS011;77099;56.074;37.376;2024-03-23T01:30:02;12.55;;;4.75;;
70951;SDS011;77099;56.074;37.376;2024-03-23T01:32:28;13.40;;;5.07;;
70951;SDS011;77099;56.074;37.376;2024-03-23T01:34:54;13.37;;;4.80;;
70951;SDS011;77099;56.074;37.376;2024-03-23T01:37:20;9.70;;;3.63;;
70951;SDS011;77099;56.074;37.376;2024-03-23T01:39:45;11.18;;;4.13;;
70951;SDS011;77099;56.074;37.376;2024-03-23T01:42:12;11.88;;;4.00;;
70951;SDS011;77099;56.074;37.376;2024-03-23T01:44:38;12.07;;;5.17;;
70951;SDS011;77099;56.074;37.376;2024-03-23T01:47:03;12.13;;;4.63;;
70951;SDS011;77099;56.074;37.376;2024-03-23T01:49:29;11.48;;;4.25;;
70951;SDS011;77099;56.074;37.376;2024-03-23T01:51:54;10.73;;;3.80;;
70951;SDS011;77099;56.074;37.376;2024-03-23T01:54:20;15.32;;;4.88;;
70951;SDS011;77099;56.074;37.376;2024-03-23T01:56:48;11.98;;;4.53;;
70951;SDS011;77099;56.074;37.376;2024-03-23T01:59:14;12.27;;;4.32;;
70951;SDS011;77099;56.074;37.376;2024-03-23T02:01:40;8.93;;;3.37;;
70951;SDS011;77099;56.074;37.376;2024-03-23T02:04:06;12.43;;;4.72;;
70951;SDS011;77099;56.074;37.376;2024-03-23T02:06:32;11.20;;;3.90;;
70951;SDS011;77099;56.074;37.376;2024-03-23T02:08:58;11.93;;;4.22;;
70951;SDS011;77099;56.074;37.376;2024-03-23T02:11:25;9.00;;;3.33;;
70951;SDS011;77099;56.074;37.376;2024-03-23T02:13:51;12.52;;;4.93;;
70951;SDS011;77099;56.074;37.376;2024-03-23T02:16:16;15.10;;;4.80;;
70951;SDS011;77099;56.074;37.376;2024-03-23T02:18:42;13.50;;;5.57;;
70951;SDS011;77099;56.074;37.376;2024-03-23T02:21:08;14.02;;;5.53;;
70951;SDS011;77099;56.074;37.376;2024-03-23T02:23:33;11.18;;;3.78;;
70951;SDS011;77099;56.074;37.376;2024-03-23T02:25:59;7.87;;;2.37;;
70951;SDS011;77099;56.074;37.376;2024-03-23T02:28:24;10.87;;;4.30;;
70951;SDS011;77099;56.074;37.376;2024-03-23T02:30:50;11.40;;;4.68;;
70951;SDS011;77099;56.074;37.376;2024-03-23T02:33:16;14.32;;;4.85;;
70951;SDS011;77099;56.074;37.376;2024-03-23T02:35:43;8.00;;;2.90;;
70951;SDS011;77099;56.074;37.376;2024-03-23T02:38:11;9.88;;;4.25;;
70951;SDS011;77099;56.074;37.376;2024-03-23T02:40:36;13.70;;;4.10;;
70951;SDS011;77099;56.074;37.376;2024-03-23T02:43:02;10.03;;;4.50;;
70951;SDS011;77099;56.074;37.376;2024-03-23T02:45:29;14.52;;;5.80;;
70951;SDS011;77099;56.074;37.376;2024-03-23T02:47:55;12.27;;;5.07;;
70951;SDS011;77099;56.074;37.376;2024-03-23T02:50:20;13.80;;;4.90;;
70951;SDS011;77099;56.074;37.376;2024-03-23T02:52:47;11.45;;;3.78;;
70951;SDS011;77099;56.074;37.376;2024-03-23T02:55:13;10.98;;;4.63;;
70951;SDS011;77099;56.074;37.376;2024-03-23T02:57:39;8.63;;;3.10;;
70951;SDS011;77099;56.074;37.376;2024-03-23T03:00:05;12.48;;;5.18;;
70951;SDS011;77099;56.074;37.376;2024-03-23T03:02:32;10.65;;;4.00;;
70951;SDS011;77099;56.074;37.376;2024-03-23T03:04:59;10.48;;;3.17;;
70951;SDS011;77099;56.074;37.376;2024-03-23T03:07:24;9.97;;;3.97;;
70951;SDS011;77099;56.074;37.376;2024-03-23T03:09:50;9.70;;;3.42;;
70951;SDS011;77099;56.074;37.376;2024-03-23T03:12:16;7.30;;;2.60;;
70951;SDS011;77099;56.074;37.376;2024-03-23T03:14:42;10.53;;;3.67;;
70951;SDS011;77099;56.074;37.376;2024-03-23T03:17:07;11.60;;;3.92;;
70951;SDS011;77099;56.074;37.376;2024-03-23T03:19:33;12.57;;;4.60;;
70951;SDS011;77099;56.074;37.376;2024-03-23T03:21:59;10.50;;;4.00;;
70951;SDS011;77099;56.074;37.376;2024-03-23T03:24:25;9.82;;;3.80;;
70951;SDS011;77099;56.074;37.376;2024-03-23T03:26:50;7.43;;;2.53;;
70951;SDS011;77099;56.074;37.376;2024-03-23T03:29:16;11.97;;;4.60;;
70951;SDS011;77099;56.074;37.376;2024-03-23T03:31:42;14.13;;;5.70;;
70951;SDS011;77099;56.074;37.376;2024-03-23T03:34:08;12.88;;;4.80;;
70951;SDS011;77099;56.074;37.376;2024-03-23T03:36:34;8.33;;;2.47;;
70951;SDS011;77099;56.074;37.376;2024-03-23T03:39:00;10.67;;;4.00;;
70951;SDS011;77099;56.074;37.376;2024-03-23T03:41:25;10.93;;;3.72;;
70951;SDS011;77099;56.074;37.376;2024-03-23T03:43:51;12.33;;;3.60;;
70951;SDS011;77099;56.074;37.376;2024-03-23T03:46:17;10.73;;;3.93;;
70951;SDS011;77099;56.074;37.376;2024-03-23T03:48:42;4.68;;;1.92;;
70951;SDS011;77099;56.074;37.376;2024-03-23T03:51:11;10.93;;;4.03;;
70951;SDS011;77099;56.074;37.376;2024-03-23T03:53:36;12.25;;;4.68;;
70951;SDS011;77099;56.074;37.376;2024-03-23T03:56:02;10.93;;;4.60;;
70951;SDS011;77099;56.074;37.376;2024-03-23T03:58:28;11.98;;;4.03;;
70951;SDS011;77099;56.074;37.376;2024-03-23T04:00:54;10.63;;;3.90;;
70951;SDS011;77099;56.074;37.376;2024-03-23T04:03:19;9.80;;;3.53;;
70951;SDS011;77099;56.074;37.376;2024-03-23T04:05:52;9.73;;;4.43;;
70951;SDS011;77099;56.074;37.376;2024-03-23T04:08:19;15.27;;;4.87;;
70951;SDS011;77099;56.074;37.376;2024-03-23T04:10:45;11.63;;;4.38;;
70951;SDS011;77099;56.074;37.376;2024-03-23T04:13:11;9.80;;;3.92;;
70951;SDS011;77099;56.074;37.376;2024-03-23T04:15:37;10.95;;;3.35;;
70951;SDS011;77099;56.074;37.376;2024-03-23T04:18:04;9.13;;;3.07;;
70951;SDS011;77099;56.074;37.376;2024-03-23T04:20:30;11.43;;;4.13;;
70951;SDS011;77099;56.074;37.376;2024-03-23T04:22:55;11.50;;;4.30;;
70951;SDS011;77099;56.074;37.376;2024-03-23T04:25:21;8.57;;;2.43;;
70951;SDS011;77099;56.074;37.376;2024-03-23T04:27:47;11.05;;;3.78;;
70951;SDS011;77099;56.074;37.376;2024-03-23T04:30:12;14.93;;;4.90;;
70951;SDS011;77099;56.074;37.376;2024-03-23T04:32:38;10.77;;;4.68;;
70951;SDS011;77099;56.074;37.376;2024-03-23T04:35:04;11.03;;;4.67;;
70951;SDS011;77099;56.074;37.376;2024-03-23T04:37:37;13.77;;;4.45;;
70951;SDS011;77099;56.074;37.376;2024-03-23T04:40:06;8.75;;;3.65;;
70951;SDS011;77099;56.074;37.376;2024-03-23T04:42:32;10.70;;;3.42;;
70951;SDS011;77099;56.074;37.376;2024-03-23T04:44:58;13.27;;;5.37;;
70951;SDS011;77099;56.074;37.376;2024-03-23T04:47:24;8.82;;;2.85;;
70951;SDS011;77099;56.074;37.376;2024-03-23T04:49:49;12.00;;;4.40;;
70951;SDS011;77099;56.074;37.376;2024-03-23T04:52:16;12.20;;;3.95;;
70951;SDS011;77099;56.074;37.376;2024-03-23T04:54:42;13.75;;;4.88;;
70951;SDS011;77099;56.074;37.376;2024-03-23T04:57:08;12.43;;;4.33;;
70951;SDS011;77099;56.074;37.376;2024-03-23T04:59:34;11.27;;;3.95;;
70951;SDS011;77099;56.074;37.376;2024-03-23T05:01:59;10.77;;;4.47;;
70951;SDS011;77099;56.074;37.376;2024-03-23T05:04:26;12.40;;;3.85;;
70951;SDS011;77099;56.074;37.376;2024-03-23T05:06:52;9.02;;;3.45;;
70951;SDS011;77099;56.074;37.376;2024-03-23T05:09:17;9.10;;;3.27;;
70951;SDS011;77099;56.074;37.376;2024-03-23T05:11:43;10.02;;;3.53;;
70951;SDS011;77099;56.074;37.376;2024-03-23T05:14:11;8.60;;;3.30;;
70951;SDS011;77099;56.074;37.376;2024-03-23T05:16:40;7.57;;;2.57;;
70951;SDS011;77099;56.074;37.376;2024-03-23T05:19:06;8.40;;;3.33;;
70951;SDS011;77099;56.074;37.376;2024-03-23T05:21:32;5.75;;;2.13;;
70951;SDS011;77099;56.074;37.376;2024-03-23T05:23:57;9.87;;;3.90;;
70951;SDS011;77099;56.074;37.376;2024-03-23T05:26:23;6.90;;;2.03;;
70951;SDS011;77099;56.074;37.376;2024-03-23T05:28:49;6.40;;;2.33;;
70951;SDS011;77099;56.074;37.376;2024-03-23T05:31:24;6.95;;;2.20;;
70951;SDS011;77099;56.074;37.376;2024-03-23T05:33:50;8.95;;;3.55;;
70951;SDS011;77099;56.074;37.376;2024-03-23T05:36:17;5.07;;;1.67;;
70951;SDS011;77099;56.074;37.376;2024-03-23T05:38:43;6.75;;;2.50;;
70951;SDS011;77099;56.074;37.376;2024-03-23T05:41:08;6.43;;;2.55;;
70951;SDS011;77099;56.074;37.376;2024-03-23T05:43:34;5.13;;;1.70;;
70951;SDS011;77099;56.074;37.376;2024-03-23T05:46:00;6.35;;;2.70;;
70951;SDS011;77099;56.074;37.376;2024-03-23T05:48:30;5.07;;;1.90;;
70951;SDS011;77099;56.074;37.376;2024-03-23T05:50:57;3.58;;;1.08;;
70951;SDS011;77099;56.074;37.376;2024-03-23T05:53:23;6.80;;;2.50;;
70951;SDS011;77099;56.074;37.376;2024-03-23T05:55:50;6.07;;;2.05;;
70951;SDS011;77099;56.074;37.376;2024-03-23T05:58:16;4.03;;;1.45;;
70951;SDS011;77099;56.074;37.376;2024-03-23T06:03:28;4.07;;;1.30;;
70951;SDS011;77099;56.074;37.376;2024-03-23T06:05:54;4.87;;;1.67;;
70951;SDS011;77099;56.074;37.376;2024-03-23T06:08:20;4.65;;;1.48;;
70951;SDS011;77099;56.074;37.376;2024-03-23T06:10:47;4.28;;;1.13;;
70951;SDS011;77099;56.074;37.376;2024-03-23T06:13:13;3.88;;;1.08;;
70951;SDS011;77099;56.074;37.376;2024-03-23T06:15:39;6.32;;;2.22;;
70951;SDS011;77099;56.074;37.376;2024-03-23T06:18:04;4.87;;;1.30;;
70951;SDS011;77099;56.074;37.376;2024-03-23T06:20:31;5.63;;;1.77;;
70951;SDS011;77099;56.074;37.376;2024-03-23T06:22:57;4.97;;;1.20;;
70951;SDS011;77099;56.074;37.376;2024-03-23T06:25:23;3.45;;;1.02;;
70951;SDS011;77099;56.074;37.376;2024-03-23T06:27:48;6.40;;;2.22;;
70951;SDS011;77099;56.074;37.376;2024-03-23T06:30:14;4.77;;;0.77;;
70951;SDS011;77099;56.074;37.376;2024-03-23T06:32:40;4.53;;;1.30;;
70951;SDS011;77099;56.074;37.376;2024-03-23T06:35:05;4.37;;;1.10;;
70951;SDS011;77099;56.074;37.376;2024-03-23T06:37:35;4.82;;;1.58;;
70951;SDS011;77099;56.074;37.376;2024-03-23T06:40:01;5.70;;;1.77;;
70951;SDS011;77099;56.074;37.376;2024-03-23T06:42:28;4.63;;;1.47;;
70951;SDS011;77099;56.074;37.376;2024-03-23T06:44:54;6.57;;;2.13;;
70951;SDS011;77099;56.074;37.376;2024-03-23T06:47:20;4.03;;;1.30;;
70951;SDS011;77099;56.074;37.376;2024-03-23T06:49:45;6.78;;;1.88;;
70951;SDS011;77099;56.074;37.376;2024-03-23T06:52:11;2.53;;;0.73;;
70951;SDS011;77099;56.074;37.376;2024-03-23T06:54:36;4.27;;;1.17;;
70951;SDS011;77099;56.074;37.376;2024-03-23T06:57:02;4.67;;;1.60;;
70951;SDS011;77099;56.074;37.376;2024-03-23T06:59:28;4.23;;;1.30;;
70951;SDS011;77099;56.074;37.376;2024-03-23T07:01:53;4.10;;;1.23;;
70951;SDS011;77099;56.074;37.376;2024-03-23T07:04:19;2.97;;;0.70;;
70951;SDS011;77099;56.074;37.376;2024-03-23T07:06:45;2.40;;;0.50;;
70951;SDS011;77099;56.074;37.376;2024-03-23T07:09:11;1.80;;;0.50;;
70951;SDS011;77099;56.074;37.376;2024-03-23T07:11:37;1.30;;;0.20;;
70951;SDS011;77099;56.074;37.376;2024-03-23T07:14:03;0.57;;;0.10;;
70951;SDS011;77099;56.074;37.376;2024-03-23T07:16:28;0.63;;;0.10;;
70951;SDS011;77099;56.074;37.376;2024-03-23T07:18:54;0.77;;;0.10;;
70951;SDS011;77099;56.074;37.376;2024-03-23T07:21:21;0.47;;;0.10;;
70951;SDS011;77099;56.074;37.376;2024-03-23T07:23:47;0.47;;;0.00;;
70951;SDS011;77099;56.074;37.376;2024-03-23T07:26:13;0.40;;;0.10;;
70951;SDS011;77099;56.074;37.376;2024-03-23T07:28:38;0.53;;;0.10;;
70951;SDS011;77099;56.074;37.376;2024-03-23T07:31:12;0.50;;;0.00;;
70951;SDS011;77099;56.074;37.376;2024-03-23T07:33:48;0.28;;;0.08;;
70951;SDS011;77099;56.074;37.376;2024-03-23T07:36:14;0.50;;;0.00;;
70951;SDS011;77099;56.074;37.376;2024-03-23T07:38:40;0.10;;;0.00;;
70951;SDS011;77099;56.074;37.376;2024-03-23T07:41:19;0.10;;;0.10;;
70951;SDS011;77099;56.074;37.376;2024-03-23T07:43:46;0.05;;;0.00;;
70951;SDS011;77099;56.074;37.376;2024-03-23T07:46:13;0.10;;;0.00;;
70951;SDS011;77099;56.074;37.376;2024-03-23T07:48:40;0.00;;;0.00;;
70951;SDS011;77099;56.074;37.376;2024-03-23T07:51:08;0.00;;;0.00;;
70951;SDS011;77099;56.074;37.376;2024-03-23T07:53:36;0.10;;;0.00;;
70951;SDS011;77099;56.074;37.376;2024-03-23T07:56:05;0.10;;;0.00;;
70951;SDS011;77099;56.074;37.376;2024-03-23T07:58:32;0.00;;;0.00;;
70951;SDS011;77099;56.074;37.376;2024-03-23T08:01:04;0.00;;;0.00;;
70951;SDS011;77099;56.074;37.376;2024-03-23T08:03:33;0.15;;;0.00;;
70951;SDS011;77099;56.074;37.376;2024-03-23T08:06:13;0.00;;;0.00;;
70951;SDS011;77099;56.074;37.376;2024-03-23T08:08:41;0.10;;;0.00;;
70951;SDS011;77099;56.074;37.376;2024-03-23T08:11:07;0.00;;;0.00;;
70951;SDS011;77099;56.074;37.376;2024-03-23T08:13:33;0.13;;;0.00;;
70951;SDS011;77099;56.074;37.376;2024-03-23T08:16:00;0.00;;;0.00;;
70951;SDS011;77099;56.074;37.376;2024-03-23T08:18:27;0.00;;;0.00;;
70951;SDS011;77099;56.074;37.376;2024-03-23T08:20:59;0.00;;;0.00;;
70951;SDS011;77099;56.074;37.376;2024-03-23T08:23:29;0.00;;;0.00;;
70951;SDS011;77099;56.074;37.376;2024-03-23T08:25:59;0.10;;;0.00;;
70951;SDS011;77099;56.074;37.376;2024-03-23T08:28:26;0.00;;;0.00;;
70951;SDS011;77099;56.074;37.376;2024-03-23T08:30:52;0.10;;;0.00;;
70951;SDS011;77099;56.074;37.376;2024-03-23T08:33:19;0.00;;;0.00;;
70951;SDS011;77099;56.074;37.376;2024-03-23T08:36:04;0.10;;;0.00;;
70951;SDS011;77099;56.074;37.376;2024-03-23T08:38:34;0.00;;;0.00;;
70951;SDS011;77099;56.074;37.376;2024-03-23T08:41:04;0.00;;;0.00;;
70951;SDS011;77099;56.074;37.376;2024-03-23T08:43:30;0.10;;;0.00;;
70951;SDS011;77099;56.074;37.376;2024-03-23T08:46:05;0.10;;;0.00;;
70951;SDS011;77099;56.074;37.376;2024-03-23T08:48:37;0.00;;;0.00;;
70951;SDS011;77099;56.074;37.376;2024-03-23T08:51:04;0.20;;;0.00;;
70951;SDS011;77099;56.074;37.376;2024-03-23T08:53:31;0.00;;;0.00;;
70951;SDS011;77099;56.074;37.376;2024-03-23T08:55:58;0.20;;;0.00;;
70951;SDS011;77099;56.074;37.376;2024-03-23T08:58:25;0.05;;;0.00;;
70951;SDS011;77099;56.074;37.376;2024-03-23T09:00:52;0.05;;;0.00;;
70951;SDS011;77099;56.074;37.376;2024-03-23T09:03:21;0.00;;;0.00;;
70951;SDS011;77099;56.074;37.376;2024-03-23T09:05:46;0.00;;;0.00;;
70951;SDS011;77099;56.074;37.376;2024-03-23T09:08:12;0.00;;;0.00;;
70951;SDS011;77099;56.074;37.376;2024-03-23T09:10:38;0.00;;;0.00;;
70951;SDS011;77099;56.074;37.376;2024-03-23T09:13:04;0.00;;;0.00;;
70951;SDS011;77099;56.074;37.376;2024-03-23T09:15:30;0.00;;;0.00;;
70951;SDS011;77099;56.074;37.376;2024-03-23T09:17:56;0.15;;;0.00;;
70951;SDS011;77099;56.074;37.376;2024-03-23T09:20:24;0.00;;;0.00;;
70951;SDS011;77099;56.074;37.376;2024-03-23T09:22:50;0.10;;;0.00;;
70951;SDS011;77099;56.074;37.376;2024-03-23T09:25:16;0.00;;;0.00;;
70951;SDS011;77099;56.074;37.376;2024-03-23T09:27:42;0.10;;;0.00;;
70951;SDS011;77099;56.074;37.376;2024-03-23T09:30:12;0.30;;;0.10;;
70951;SDS011;77099;56.074;37.376;2024-03-23T09:32:38;0.00;;;0.00;;
70951;SDS011;77099;56.074;37.376;2024-03-23T09:35:04;0.00;;;0.00;;
70951;SDS011;77099;56.074;37.376;2024-03-23T09:37:30;0.00;;;0.00;;
70951;SDS011;77099;56.074;37.376;2024-03-23T09:39:55;0.00;;;0.00;;
70951;SDS011;77099;56.074;37.376;2024-03-23T09:42:21;0.03;;;0.00;;
70951;SDS011;77099;56.074;37.376;2024-03-23T09:44:47;0.00;;;0.00;;
70951;SDS011;77099;56.074;37.376;2024-03-23T09:47:17;0.00;;;0.00;;
70951;SDS011;77099;56.074;37.376;2024-03-23T09:49:43;0.00;;;0.00;;
70951;SDS011;77099;56.074;37.376;2024-03-23T09:52:09;0.10;;;0.00;;
70951;SDS011;77099;56.074;37.376;2024-03-23T09:54:35;0.00;;;0.00;;
70951;SDS011;77099;56.074;37.376;2024-03-23T09:57:01;0.00;;;0.00;;
70951;SDS011;77099;56.074;37.376;2024-03-23T09:59:28;0.00;;;0.00;;
70951;SDS011;77099;56.074;37.376;2024-03-23T10:01:54;0.00;;;0.00;;
70951;SDS011;77099;56.074;37.376;2024-03-23T10:04:42;0.00;;;0.00;;
70951;SDS011;77099;56.074;37.376;2024-03-23T10:09:50;0.05;;;0.00;;
70951;SDS011;77099;56.074;37.376;2024-03-23T10:12:19;0.00;;;0.00;;
70951;SDS011;77099;56.074;37.376;2024-03-23T10:14:45;0.20;;;0.00;;
70951;SDS011;77099;56.074;37.376;2024-03-23T10:17:12;0.00;;;0.00;;
70951;SDS011;77099;56.074;37.376;2024-03-23T10:19:55;0.00;;;0.00;;
70951;SDS011;77099;56.074;37.376;2024-03-23T10:22:22;0.00;;;0.00;;
70951;SDS011;77099;56.074;37.376;2024-03-23T10:24:49;0.00;;;0.00;;
70951;SDS011;77099;56.074;37.376;2024-03-23T10:27:19;0.00;;;0.00;;
70951;SDS011;77099;56.074;37.376;2024-03-23T10:29:49;0.00;;;0.00;;
70951;SDS011;77099;56.074;37.376;2024-03-23T10:32:16;0.30;;;0.00;;
70951;SDS011;77099;56.074;37.376;2024-03-23T10:34:43;0.00;;;0.00;;
70951;SDS011;77099;56.074;37.376;2024-03-23T10:37:09;0.00;;;0.00;;
70951;SDS011;77099;56.074;37.376;2024-03-23T10:39:36;0.00;;;0.00;;
70951;SDS011;77099;56.074;37.376;2024-03-23T10:42:04;0.00;;;0.00;;
70951;SDS011;77099;56.074;37.376;2024-03-23T10:44:31;0.10;;;0.00;;
70951;SDS011;77099;56.074;37.376;2024-03-23T10:47:00;0.00;;;0.00;;
70951;SDS011;77099;56.074;37.376;2024-03-23T10:49:30;0.00;;;0.00;;
70951;SDS011;77099;56.074;37.376;2024-03-23T10:52:01;0.00;;;0.00;;
70951;SDS011;77099;56.074;37.376;2024-03-23T10:54:27;0.10;;;0.00;;
70951;SDS011;77099;56.074;37.376;2024-03-23T10:59:31;0.00;;;0.00;;
70951;SDS011;77099;56.074;37.376;2024-03-23T11:01:57;0.00;;;0.00;;
70951;SDS011;77099;56.074;37.376;2024-03-23T11:07:01;0.00;;;0.00;;
70951;SDS011;77099;56.074;37.376;2024-03-23T11:14:50;0.00;;;0.00;;
70951;SDS011;77099;56.074;37.376;2024-03-23T11:17:18;0.00;;;0.00;;
70951;SDS011;77099;56.074;37.376;2024-03-23T11:19:46;0.00;;;0.00;;
70951;SDS011;77099;56.074;37.376;2024-03-23T11:25:18;0.00;;;0.00;;
70951;SDS011;77099;56.074;37.376;2024-03-23T11:27:46;0.00;;;0.00;;
70951;SDS011;77099;56.074;37.376;2024-03-23T11:30:16;0.00;;;0.00;;
70951;SDS011;77099;56.074;37.376;2024-03-23T11:32:42;0.00;;;0.00;;
70951;SDS011;77099;56.074;37.376;2024-03-23T11:35:28;0.00;;;0.00;;
70951;SDS011;77099;56.074;37.376;2024-03-23T11:38:14;0.00;;;0.00;;
70951;SDS011;77099;56.074;37.376;2024-03-23T11:40:44;0.10;;;0.00;;
70951;SDS011;77099;56.074;37.376;2024-03-23T11:43:15;0.00;;;0.00;;
70951;SDS011;77099;56.074;37.376;2024-03-23T11:48:12;0.00;;;0.00;;
70951;SDS011;77099;56.074;37.376;2024-03-23T11:50:39;0.00;;;0.00;;
70951;SDS011;77099;56.074;37.376;2024-03-23T11:58:17;0.10;;;0.00;;
70951;SDS011;77099;56.074;37.376;2024-03-23T12:03:16;0.00;;;0.00;;
70951;SDS011;77099;56.074;37.376;2024-03-23T12:05:46;0.00;;;0.00;;
70951;SDS011;77099;56.074;37.376;2024-03-23T12:08:15;0.00;;;0.00;;
70951;SDS011;77099;56.074;37.376;2024-03-23T12:10:43;0.00;;;0.00;;
70951;SDS011;77099;56.074;37.376;2024-03-23T12:13:10;0.00;;;0.00;;
70951;SDS011;77099;56.074;37.376;2024-03-23T12:15:36;0.00;;;0.00;;
70951;SDS011;77099;56.074;37.376;2024-03-23T12:18:08;0.00;;;0.00;;
70951;SDS011;77099;56.074;37.376;2024-03-23T12:20:34;0.03;;;0.00;;
70951;SDS011;77099;56.074;37.376;2024-03-23T12:23:07;0.00;;;0.00;;
70951;SDS011;77099;56.074;37.376;2024-03-23T12:25:36;0.00;;;0.00;;
70951;SDS011;77099;56.074;37.376;2024-03-23T12:28:01;0.00;;;0.00;;
70951;SDS011;77099;56.074;37.376;2024-03-23T12:30:27;0.00;;;0.00;;
70951;SDS011;77099;56.074;37.376;2024-03-23T12:32:53;0.00;;;0.00;;
70951;SDS011;77099;56.074;37.376;2024-03-23T12:35:19;0.00;;;0.00;;
70951;SDS011;77099;56.074;37.376;2024-03-23T12:37:45;0.00;;;0.00;;
70951;SDS011;77099;56.074;37.376;2024-03-23T12:40:11;0.00;;;0.00;;
70951;SDS011;77099;56.074;37.376;2024-03-23T12:42:36;0.00;;;0.00;;
70951;SDS011;77099;56.074;37.376;2024-03-23T12:45:02;0.00;;;0.00;;
70951;SDS011;77099;56.074;37.376;2024-03-23T12:47:30;0.00;;;0.00;;
70951;SDS011;77099;56.074;37.376;2024-03-23T12:49:55;0.00;;;0.00;;
70951;SDS011;77099;56.074;37.376;2024-03-23T12:52:21;0.00;;;0.00;;
70951;SDS011;77099;56.074;37.376;2024-03-23T12:54:49;0.00;;;0.00;;
70951;SDS011;77099;56.074;37.376;2024-03-23T12:57:15;0.00;;;0.00;;
70951;SDS011;77099;56.074;37.376;2024-03-23T12:59:40;0.00;;;0.00;;
70951;SDS011;77099;56.074;37.376;2024-03-23T13:02:06;0.10;;;0.00;;
70951;SDS011;77099;56.074;37.376;2024-03-23T13:04:32;0.00;;;0.00;;
70951;SDS011;77099;56.074;37.376;2024-03-23T13:06:58;0.00;;;0.00;;
70951;SDS011;77099;56.074;37.376;2024-03-23T13:09:23;0.00;;;0.00;;
70951;SDS011;77099;56.074;37.376;2024-03-23T13:11:49;0.10;;;0.00;;
70951;SDS011;77099;56.074;37.376;2024-03-23T13:14:15;0.10;;;0.00;;
70951;SDS011;77099;56.074;37.376;2024-03-23T13:16:42;0.00;;;0.00;;
70951;SDS011;77099;56.074;37.376;2024-03-23T13:19:07;0.00;;;0.00;;
70951;SDS011;77099;56.074;37.376;2024-03-23T13:21:33;0.00;;;0.00;;
70951;SDS011;77099;56.074;37.376;2024-03-23T13:23:59;0.00;;;0.00;;
70951;SDS011;77099;56.074;37.376;2024-03-23T13:26:24;0.10;;;0.00;;
70951;SDS011;77099;56.074;37.376;2024-03-23T13:28:50;0.00;;;0.00;;
70951;SDS011;77099;56.074;37.376;2024-03-23T13:31:16;0.00;;;0.00;;
70951;SDS011;77099;56.074;37.376;2024-03-23T13:33:41;0.00;;;0.00;;
70951;SDS011;77099;56.074;37.376;2024-03-23T13:36:09;0.00;;;0.00;;
70951;SDS011;77099;56.074;37.376;2024-03-23T13:38:34;0.00;;;0.00;;
70951;SDS011;77099;56.074;37.376;2024-03-23T13:41:00;0.07;;;0.00;;
70951;SDS011;77099;56.074;37.376;2024-03-23T13:43:27;0.00;;;0.00;;
70951;SDS011;77099;56.074;37.376;2024-03-23T13:45:56;0.00;;;0.00;;
70951;SDS011;77099;56.074;37.376;2024-03-23T13:48:24;0.10;;;0.00;;
70951;SDS011;77099;56.074;37.376;2024-03-23T13:50:57;0.10;;;0.00;;
70951;SDS011;77099;56.074;37.376;2024-03-23T13:53:26;0.22;;;0.08;;
70951;SDS011;77099;56.074;37.376;2024-03-23T13:55:52;0.05;;;0.05;;
70951;SDS011;77099;56.074;37.376;2024-03-23T13:58:18;0.20;;;0.00;;
70951;SDS011;77099;56.074;37.376;2024-03-23T14:00:44;0.00;;;0.00;;
70951;SDS011;77099;56.074;37.376;2024-03-23T14:03:10;0.10;;;0.00;;
70951;SDS011;77099;56.074;37.376;2024-03-23T14:05:36;0.05;;;0.00;;
70951;SDS011;77099;56.074;37.376;2024-03-23T14:08:08;0.00;;;0.00;;
70951;SDS011;77099;56.074;37.376;2024-03-23T14:10:35;0.00;;;0.00;;
70951;SDS011;77099;56.074;37.376;2024-03-23T14:13:02;0.00;;;0.00;;
70951;SDS011;77099;56.074;37.376;2024-03-23T14:15:31;0.00;;;0.00;;
70951;SDS011;77099;56.074;37.376;2024-03-23T14:17:57;0.00;;;0.00;;
70951;SDS011;77099;56.074;37.376;2024-03-23T14:20:23;0.00;;;0.00;;
70951;SDS011;77099;56.074;37.376;2024-03-23T14:22:49;0.00;;;0.00;;
70951;SDS011;77099;56.074;37.376;2024-03-23T14:25:15;0.00;;;0.00;;
70951;SDS011;77099;56.074;37.376;2024-03-23T14:27:45;0.00;;;0.00;;
70951;SDS011;77099;56.074;37.376;2024-03-23T14:30:11;0.00;;;0.00;;
70951;SDS011;77099;56.074;37.376;2024-03-23T14:32:38;0.00;;;0.00;;
70951;SDS011;77099;56.074;37.376;2024-03-23T14:35:04;0.00;;;0.00;;
70951;SDS011;77099;56.074;37.376;2024-03-23T14:37:30;0.35;;;0.00;;
70951;SDS011;77099;56.074;37.376;2024-03-23T14:39:56;0.00;;;0.00;;
70951;SDS011;77099;56.074;37.376;2024-03-23T14:42:23;0.00;;;0.00;;
70951;SDS011;77099;56.074;37.376;2024-03-23T14:44:51;0.00;;;0.00;;
70951;SDS011;77099;56.074;37.376;2024-03-23T14:47:18;0.00;;;0.00;;
70951;SDS011;77099;56.074;37.376;2024-03-23T14:49:45;0.00;;;0.00;;
70951;SDS011;77099;56.074;37.376;2024-03-23T14:52:15;0.00;;;0.00;;
70951;SDS011;77099;56.074;37.376;2024-03-23T14:54:44;0.00;;;0.00;;
70951;SDS011;77099;56.074;37.376;2024-03-23T14:57:10;0.00;;;0.00;;
70951;SDS011;77099;56.074;37.376;2024-03-23T14:59:37;0.00;;;0.00;;
70951;SDS011;77099;56.074;37.376;2024-03-23T15:02:06;0.00;;;0.00;;
70951;SDS011;77099;56.074;37.376;2024-03-23T15:04:32;0.00;;;0.00;;
70951;SDS011;77099;56.074;37.376;2024-03-23T15:06:58;0.00;;;0.00;;
70951;SDS011;77099;56.074;37.376;2024-03-23T15:09:24;0.10;;;0.00;;
70951;SDS011;77099;56.074;37.376;2024-03-23T15:11:49;0.00;;;0.00;;
70951;SDS011;77099;56.074;37.376;2024-03-23T15:14:15;0.00;;;0.00;;
70951;SDS011;77099;56.074;37.376;2024-03-23T15:16:41;0.00;;;0.00;;
70951;SDS011;77099;56.074;37.376;2024-03-23T15:19:08;0.00;;;0.00;;
70951;SDS011;77099;56.074;37.376;2024-03-23T15:21:34;0.00;;;0.00;;
70951;SDS011;77099;56.074;37.376;2024-03-23T15:23:59;0.00;;;0.00;;
70951;SDS011;77099;56.074;37.376;2024-03-23T15:26:26;0.00;;;0.00;;
70951;SDS011;77099;56.074;37.376;2024-03-23T15:28:52;0.00;;;0.00;;
70951;SDS011;77099;56.074;37.376;2024-03-23T15:31:24;0.00;;;0.00;;
70951;SDS011;77099;56.074;37.376;2024-03-23T15:33:50;0.00;;;0.00;;
70951;SDS011;77099;56.074;37.376;2024-03-23T15:36:16;0.00;;;0.00;;
70951;SDS011;77099;56.074;37.376;2024-03-23T15:38:43;0.00;;;0.00;;
70951;SDS011;77099;56.074;37.376;2024-03-23T15:41:09;0.00;;;0.00;;
70951;SDS011;77099;56.074;37.376;2024-03-23T15:43:35;0.00;;;0.00;;
70951;SDS011;77099;56.074;37.376;2024-03-23T15:46:02;0.10;;;0.10;;
70951;SDS011;77099;56.074;37.376;2024-03-23T15:48:29;0.00;;;0.00;;
70951;SDS011;77099;56.074;37.376;2024-03-23T15:50:58;0.00;;;0.00;;
70951;SDS011;77099;56.074;37.376;2024-03-23T15:53:25;0.00;;;0.00;;